VTK225 UNKL-UNAA
Flight info
| Callsign | VTK225 |
|---|---|
| Flight time | 0h 34m |
| Altitude | 22000 |
| Route | IVRAS2E IVRAS G808 MIKET A817 RINAG RINAG1F |
| Aircraft | A319/M-SDE3FGHIRWY/LB1 |
Departure
| Time | 2026-04-24 00:05 |
|---|---|
| Airport | Krasnoyarsk International Airport (UNKL) |
Arrival
| Time | 2026-04-24 00:40 |
|---|---|
| Airport | Abakan International Airport (UNAA) |
| Time | Latitude | Longitude | Altitude | Speed | Heading |
|---|---|---|---|---|---|
| 2026-04-23 23:37 | 56.17864 | 92.48228 | 957 ft | 0 kts | 23° |
| 2026-04-24 00:02 | 56.17875 | 92.48237 | 957 ft | 3 kts | 23° |
| 2026-04-24 00:02 | 56.17903 | 92.48258 | 957 ft | 6 kts | 22° |
| 2026-04-24 00:02 | 56.17943 | 92.48232 | 956 ft | 7 kts | 307° |
| 2026-04-24 00:03 | 56.17967 | 92.48131 | 956 ft | 10 kts | 292° |
| 2026-04-24 00:03 | 56.17993 | 92.48019 | 955 ft | 9 kts | 288° |
| 2026-04-24 00:03 | 56.17957 | 92.47944 | 957 ft | 10 kts | 202° |
| 2026-04-24 00:03 | 56.17884 | 92.47890 | 955 ft | 13 kts | 203° |
| 2026-04-24 00:04 | 56.17802 | 92.47826 | 955 ft | 12 kts | 203° |
| 2026-04-24 00:04 | 56.17723 | 92.47764 | 954 ft | 10 kts | 203° |
| 2026-04-24 00:04 | 56.17670 | 92.47751 | 953 ft | 8 kts | 143° |
| 2026-04-24 00:04 | 56.17664 | 92.47773 | 954 ft | 0 kts | 112° |
| 2026-04-24 00:05 | 56.17664 | 92.47774 | 954 ft | 3 kts | 112° |
| 2026-04-24 00:05 | 56.17533 | 92.48328 | 957 ft | 94 kts | 113° |
| 2026-04-24 00:05 | 56.17179 | 92.49825 | 976 ft | 161 kts | 112° |
| 2026-04-24 00:05 | 56.16741 | 92.51716 | 1618 ft | 166 kts | 113° |
| 2026-04-24 00:06 | 56.16287 | 92.53650 | 2372 ft | 174 kts | 119° |
| 2026-04-24 00:06 | 56.15769 | 92.55765 | 2816 ft | 196 kts | 121° |
| 2026-04-24 00:06 | 56.15131 | 92.58046 | 3209 ft | 216 kts | 134° |
| 2026-04-24 00:06 | 56.13923 | 92.59685 | 3637 ft | 226 kts | 167° |
| 2026-04-24 00:07 | 56.12337 | 92.59798 | 4125 ft | 238 kts | 200° |
| 2026-04-24 00:07 | 56.10727 | 92.58807 | 4946 ft | 249 kts | 205° |
| 2026-04-24 00:07 | 56.09078 | 92.57757 | 5981 ft | 253 kts | 204° |
| 2026-04-24 00:07 | 56.07404 | 92.56700 | 6984 ft | 257 kts | 204° |
| 2026-04-24 00:08 | 56.05706 | 92.55635 | 7990 ft | 260 kts | 204° |
| 2026-04-24 00:08 | 56.03978 | 92.54558 | 9024 ft | 264 kts | 204° |
| 2026-04-24 00:08 | 56.02224 | 92.53469 | 9968 ft | 271 kts | 204° |
| 2026-04-24 00:08 | 56.00362 | 92.52302 | 10418 ft | 293 kts | 204° |
| 2026-04-24 00:09 | 55.98403 | 92.51077 | 11192 ft | 302 kts | 204° |
| 2026-04-24 00:09 | 55.96396 | 92.49832 | 12053 ft | 308 kts | 205° |
| 2026-04-24 00:09 | 55.94273 | 92.48884 | 12885 ft | 321 kts | 194° |
| 2026-04-24 00:09 | 55.91995 | 92.48684 | 13680 ft | 332 kts | 188° |
| 2026-04-24 00:10 | 55.89698 | 92.48604 | 14400 ft | 337 kts | 187° |
| 2026-04-24 00:10 | 55.87337 | 92.48519 | 15159 ft | 340 kts | 187° |
| 2026-04-24 00:10 | 55.84950 | 92.48434 | 15900 ft | 345 kts | 187° |
| 2026-04-24 00:10 | 55.82535 | 92.48345 | 16645 ft | 349 kts | 186° |
| 2026-04-24 00:11 | 55.80092 | 92.48251 | 17376 ft | 353 kts | 186° |
| 2026-04-24 00:11 | 55.77615 | 92.48154 | 18092 ft | 357 kts | 186° |
| 2026-04-24 00:11 | 55.75115 | 92.48051 | 18702 ft | 361 kts | 186° |
| 2026-04-24 00:11 | 55.72594 | 92.47946 | 19385 ft | 363 kts | 186° |
| 2026-04-24 00:12 | 55.70061 | 92.47847 | 20070 ft | 366 kts | 186° |
| 2026-04-24 00:12 | 55.67526 | 92.47748 | 20749 ft | 369 kts | 186° |
| 2026-04-24 00:12 | 55.64950 | 92.47649 | 21397 ft | 372 kts | 186° |
| 2026-04-24 00:12 | 55.62361 | 92.47552 | 21640 ft | 373 kts | 186° |
| 2026-04-24 00:13 | 55.59797 | 92.47463 | 21695 ft | 361 kts | 186° |
| 2026-04-24 00:13 | 55.57329 | 92.47383 | 21698 ft | 351 kts | 187° |
| 2026-04-24 00:13 | 55.54901 | 92.47296 | 21700 ft | 348 kts | 187° |
| 2026-04-24 00:13 | 55.52478 | 92.47199 | 21701 ft | 347 kts | 187° |
| 2026-04-24 00:14 | 55.50064 | 92.47101 | 21700 ft | 347 kts | 187° |
| 2026-04-24 00:14 | 55.47651 | 92.47001 | 21696 ft | 347 kts | 187° |
| 2026-04-24 00:14 | 55.46050 | 92.46934 | 21700 ft | 347 kts | 187° |
| 2026-04-24 00:14 | 55.43635 | 92.46835 | 21703 ft | 347 kts | 187° |
| 2026-04-24 00:15 | 55.41220 | 92.46738 | 21702 ft | 347 kts | 187° |
| 2026-04-24 00:15 | 55.38809 | 92.46588 | 21702 ft | 345 kts | 191° |
| 2026-04-24 00:15 | 55.36470 | 92.45817 | 21704 ft | 340 kts | 199° |
| 2026-04-24 00:15 | 55.34173 | 92.44824 | 21707 ft | 340 kts | 199° |
| 2026-04-24 00:16 | 55.31876 | 92.43834 | 21703 ft | 340 kts | 199° |
| 2026-04-24 00:16 | 55.29574 | 92.42842 | 21702 ft | 340 kts | 199° |
| 2026-04-24 00:16 | 55.27277 | 92.41856 | 21696 ft | 340 kts | 199° |
| 2026-04-24 00:16 | 55.24976 | 92.40876 | 21697 ft | 340 kts | 199° |
| 2026-04-24 00:17 | 55.21929 | 92.39573 | 21686 ft | 340 kts | 199° |
| 2026-04-24 00:17 | 55.20404 | 92.38919 | 21687 ft | 341 kts | 199° |
| 2026-04-24 00:17 | 55.18101 | 92.37932 | 21688 ft | 341 kts | 199° |
| 2026-04-24 00:17 | 55.15796 | 92.36948 | 21690 ft | 341 kts | 199° |
| 2026-04-24 00:18 | 55.13488 | 92.35966 | 21697 ft | 341 kts | 199° |
| 2026-04-24 00:18 | 55.11179 | 92.34984 | 21701 ft | 342 kts | 199° |
| 2026-04-24 00:18 | 55.08869 | 92.34005 | 21702 ft | 341 kts | 199° |
| 2026-04-24 00:18 | 55.06560 | 92.33023 | 21705 ft | 342 kts | 199° |
| 2026-04-24 00:19 | 55.04245 | 92.32036 | 21708 ft | 342 kts | 199° |
| 2026-04-24 00:19 | 55.01936 | 92.31057 | 21708 ft | 341 kts | 199° |
| 2026-04-24 00:19 | 54.99628 | 92.30085 | 21709 ft | 341 kts | 199° |
| 2026-04-24 00:19 | 54.97316 | 92.29112 | 21685 ft | 342 kts | 198° |
| 2026-04-24 00:20 | 54.95000 | 92.28135 | 21689 ft | 343 kts | 198° |
| 2026-04-24 00:20 | 54.92690 | 92.27161 | 21503 ft | 339 kts | 198° |
| 2026-04-24 00:20 | 54.90401 | 92.26201 | 21238 ft | 336 kts | 198° |
| 2026-04-24 00:20 | 54.88161 | 92.25265 | 20985 ft | 335 kts | 198° |
| 2026-04-24 00:21 | 54.85899 | 92.24318 | 20731 ft | 334 kts | 198° |
| 2026-04-24 00:21 | 54.83644 | 92.23371 | 20472 ft | 333 kts | 199° |
| 2026-04-24 00:21 | 54.81395 | 92.22430 | 20227 ft | 332 kts | 199° |
| 2026-04-24 00:21 | 54.79152 | 92.21492 | 19982 ft | 331 kts | 199° |
| 2026-04-24 00:22 | 54.76918 | 92.20551 | 19743 ft | 330 kts | 199° |
| 2026-04-24 00:22 | 54.74685 | 92.19615 | 19496 ft | 329 kts | 199° |
| 2026-04-24 00:22 | 54.72457 | 92.18684 | 19245 ft | 328 kts | 199° |
| 2026-04-24 00:22 | 54.70241 | 92.17755 | 19005 ft | 327 kts | 199° |
| 2026-04-24 00:23 | 54.68024 | 92.16829 | 18766 ft | 327 kts | 199° |
| 2026-04-24 00:23 | 54.65817 | 92.15914 | 18529 ft | 326 kts | 199° |
| 2026-04-24 00:23 | 54.63643 | 92.15016 | 18302 ft | 323 kts | 199° |
| 2026-04-24 00:23 | 54.61467 | 92.14119 | 18081 ft | 320 kts | 199° |
| 2026-04-24 00:24 | 54.59322 | 92.13234 | 17745 ft | 315 kts | 199° |
| 2026-04-24 00:24 | 54.57193 | 92.12353 | 17347 ft | 313 kts | 199° |
| 2026-04-24 00:24 | 54.55080 | 92.11481 | 16956 ft | 310 kts | 199° |
| 2026-04-24 00:24 | 54.52987 | 92.10622 | 16578 ft | 308 kts | 199° |
| 2026-04-24 00:25 | 54.50907 | 92.09765 | 16191 ft | 306 kts | 199° |
| 2026-04-24 00:25 | 54.48840 | 92.08908 | 15813 ft | 305 kts | 199° |
| 2026-04-24 00:25 | 54.46783 | 92.08056 | 15427 ft | 303 kts | 199° |
| 2026-04-24 00:25 | 54.44768 | 92.07226 | 15059 ft | 301 kts | 200° |
| 2026-04-24 00:26 | 54.42817 | 92.06056 | 14700 ft | 294 kts | 211° |
| 2026-04-24 00:26 | 54.41045 | 92.04348 | 14330 ft | 291 kts | 215° |
| 2026-04-24 00:26 | 54.39297 | 92.02613 | 13960 ft | 290 kts | 214° |
| 2026-04-24 00:26 | 54.37553 | 92.00892 | 13597 ft | 289 kts | 214° |
| 2026-04-24 00:27 | 54.35814 | 91.99183 | 13186 ft | 287 kts | 214° |
| 2026-04-24 00:27 | 54.34086 | 91.97491 | 12827 ft | 285 kts | 214° |
| 2026-04-24 00:27 | 54.32368 | 91.95812 | 12460 ft | 283 kts | 214° |
| 2026-04-24 00:27 | 54.30668 | 91.94148 | 12083 ft | 280 kts | 214° |
| 2026-04-24 00:28 | 54.28993 | 91.92510 | 11889 ft | 273 kts | 214° |
| 2026-04-24 00:28 | 54.27359 | 91.90915 | 11563 ft | 270 kts | 214° |
| 2026-04-24 00:28 | 54.25723 | 91.89315 | 11171 ft | 270 kts | 213° |
| 2026-04-24 00:28 | 54.24096 | 91.87728 | 10806 ft | 269 kts | 213° |
| 2026-04-24 00:29 | 54.22476 | 91.86151 | 10427 ft | 267 kts | 213° |
| 2026-04-24 00:29 | 54.20862 | 91.84579 | 10064 ft | 266 kts | 213° |
| 2026-04-24 00:29 | 54.19260 | 91.83012 | 9708 ft | 265 kts | 213° |
| 2026-04-24 00:29 | 54.17686 | 91.81477 | 9333 ft | 263 kts | 213° |
| 2026-04-24 00:30 | 54.16097 | 91.79932 | 8929 ft | 262 kts | 213° |
| 2026-04-24 00:30 | 54.14514 | 91.78394 | 8510 ft | 261 kts | 213° |
| 2026-04-24 00:30 | 54.12944 | 91.76831 | 8096 ft | 259 kts | 217° |
| 2026-04-24 00:30 | 54.11496 | 91.75021 | 7678 ft | 258 kts | 219° |
| 2026-04-24 00:31 | 54.10051 | 91.73211 | 7281 ft | 257 kts | 219° |
| 2026-04-24 00:31 | 54.08608 | 91.71413 | 6884 ft | 256 kts | 219° |
| 2026-04-24 00:31 | 54.07167 | 91.69619 | 6497 ft | 255 kts | 219° |
| 2026-04-24 00:31 | 54.05769 | 91.67887 | 6418 ft | 241 kts | 219° |
| 2026-04-24 00:32 | 54.04446 | 91.66256 | 6340 ft | 229 kts | 219° |
| 2026-04-24 00:32 | 54.03190 | 91.64703 | 6260 ft | 218 kts | 219° |
| 2026-04-24 00:32 | 54.01996 | 91.63221 | 6165 ft | 206 kts | 220° |
| 2026-04-24 00:32 | 54.00880 | 91.61838 | 6078 ft | 197 kts | 220° |
| 2026-04-24 00:33 | 53.99777 | 91.60475 | 5994 ft | 195 kts | 218° |
| 2026-04-24 00:33 | 53.98598 | 91.59271 | 5718 ft | 201 kts | 215° |
| 2026-04-24 00:33 | 53.97400 | 91.58082 | 5548 ft | 197 kts | 214° |
| 2026-04-24 00:33 | 53.96227 | 91.56928 | 5422 ft | 191 kts | 216° |
| 2026-04-24 00:34 | 53.95109 | 91.55833 | 5280 ft | 179 kts | 216° |
| 2026-04-24 00:34 | 53.94041 | 91.54784 | 5165 ft | 176 kts | 216° |
| 2026-04-24 00:34 | 53.93027 | 91.53666 | 4986 ft | 172 kts | 218° |
| 2026-04-24 00:34 | 53.91991 | 91.52670 | 4750 ft | 170 kts | 214° |
| 2026-04-24 00:35 | 53.90938 | 91.51780 | 4524 ft | 167 kts | 213° |
| 2026-04-24 00:35 | 53.89895 | 91.50939 | 4285 ft | 165 kts | 212° |
| 2026-04-24 00:35 | 53.88866 | 91.50124 | 4049 ft | 162 kts | 211° |
| 2026-04-24 00:35 | 53.87854 | 91.49330 | 3821 ft | 157 kts | 211° |
| 2026-04-24 00:36 | 53.86886 | 91.48571 | 3604 ft | 149 kts | 211° |
| 2026-04-24 00:36 | 53.85978 | 91.47863 | 3407 ft | 137 kts | 211° |
| 2026-04-24 00:36 | 53.85142 | 91.47209 | 3215 ft | 128 kts | 210° |
| 2026-04-24 00:36 | 53.84353 | 91.46591 | 3040 ft | 126 kts | 210° |
| 2026-04-24 00:37 | 53.83564 | 91.45973 | 2881 ft | 124 kts | 209° |
| 2026-04-24 00:37 | 53.82777 | 91.45357 | 2702 ft | 124 kts | 208° |
| 2026-04-24 00:37 | 53.81989 | 91.44742 | 2517 ft | 125 kts | 207° |
| 2026-04-24 00:37 | 53.81204 | 91.44130 | 2327 ft | 123 kts | 206° |
| 2026-04-24 00:38 | 53.80426 | 91.43522 | 2138 ft | 123 kts | 206° |
| 2026-04-24 00:38 | 53.79651 | 91.42918 | 1949 ft | 123 kts | 205° |
| 2026-04-24 00:38 | 53.78871 | 91.42310 | 1769 ft | 125 kts | 204° |
| 2026-04-24 00:38 | 53.78077 | 91.41691 | 1594 ft | 125 kts | 204° |
| 2026-04-24 00:39 | 53.77289 | 91.41078 | 1413 ft | 124 kts | 204° |
| 2026-04-24 00:39 | 53.76514 | 91.40472 | 1256 ft | 124 kts | 204° |
| 2026-04-24 00:39 | 53.75734 | 91.39863 | 1074 ft | 123 kts | 204° |
| 2026-04-24 00:39 | 53.74961 | 91.39263 | 885 ft | 122 kts | 204° |
| 2026-04-24 00:40 | 53.74261 | 91.38719 | 848 ft | 86 kts | 205° |
| 2026-04-24 00:40 | 53.74067 | 91.38563 | 846 ft | 5 kts | 219° |
| 2026-04-24 00:40 | 53.74036 | 91.38527 | 845 ft | 4 kts | 167° |
| 2026-04-24 00:40 | 53.74028 | 91.38566 | 846 ft | 4 kts | 74° |
| 2026-04-24 00:41 | 53.74045 | 91.38574 | 840 ft | 2 kts | 10° |
| 2026-04-24 00:41 | 53.74068 | 91.38581 | 840 ft | 7 kts | 10° |
| 2026-04-24 00:41 | 53.74128 | 91.38612 | 847 ft | 10 kts | 23° |
| 2026-04-24 00:41 | 53.74208 | 91.38679 | 848 ft | 16 kts | 31° |
| 2026-04-24 00:42 | 53.74300 | 91.38802 | 848 ft | 17 kts | 46° |
| 2026-04-24 00:42 | 53.74372 | 91.38959 | 848 ft | 17 kts | 56° |
| 2026-04-24 00:42 | 53.74437 | 91.39119 | 849 ft | 16 kts | 55° |
| 2026-04-24 00:42 | 53.74524 | 91.39233 | 851 ft | 16 kts | 24° |
| 2026-04-24 00:43 | 53.74623 | 91.39310 | 852 ft | 16 kts | 24° |
| 2026-04-24 00:43 | 53.74723 | 91.39387 | 854 ft | 16 kts | 25° |
| 2026-04-24 00:43 | 53.74821 | 91.39464 | 853 ft | 15 kts | 25° |
| 2026-04-24 00:43 | 53.74905 | 91.39528 | 852 ft | 10 kts | 24° |
| 2026-04-24 00:44 | 53.74938 | 91.39586 | 852 ft | 7 kts | 82° |
| 2026-04-24 00:44 | 53.74917 | 91.39675 | 852 ft | 8 kts | 115° |
| 2026-04-24 00:44 | 53.74920 | 91.39765 | 852 ft | 8 kts | 73° |
| 2026-04-24 00:44 | 53.74924 | 91.39845 | 852 ft | 6 kts | 119° |
| 2026-04-24 00:45 | 53.74890 | 91.39872 | 852 ft | 5 kts | 162° |
| 2026-04-24 00:45 | 53.74875 | 91.39880 | 852 ft | 0 kts | 162° |